Login
Access
Login with your mtb-forum.it nickname and password.


You do not have an account? Sign up here for free

fabiotaro70

Last training unit 25/04/2012
1
Followers
19 080 Km
itineraries
227 514 m
of total vertical gain
700
hours of riding
27.67 Km/h
average speed
140
average HR


25/04/2012 Show to everybody activity_171863531 136.56 Km 1501 m 04:55:44 27.71 Km\h BMC SLR 01 m.y. 2011
23/04/2012 Show to everybody activity_171033955 51.96 Km 407 m 01:48:23 28.76 Km\h BMC SLR 01 m.y. 2011
22/04/2012 Show to everybody activity_170818482 128.7 Km 2220 m 04:37:54 27.79 Km\h BMC SLR 01 m.y. 2011
21/04/2012 Show to everybody activity_170117421 71.4 Km 759 m 02:34:38 27.7 Km\h BMC SLR 01 m.y. 2011
18/04/2012 Show to everybody activity_169326836 38.04 Km 628 m 01:23:49 27.23 Km\h BMC SLR 01 m.y. 2011
17/04/2012 Show to everybody activity_169272461 64.18 Km 706 m 02:21:07 27.29 Km\h BMC SLR 01 m.y. 2011
14/04/2012 Show to everybody activity_167819815 51.66 Km 25 m 01:59:56 25.85 Km\h BMC SLR 01 m.y. 2011
12/04/2012 Show to everybody activity_167440737 145.77 Km 2534 m 05:32:31 26.3 Km\h BMC SLR 01 m.y. 2011
10/04/2012 Show to everybody activity_166696189 51.35 Km 918 m 01:53:53 27.05 Km\h BMC SLR 01 m.y. 2011
07/04/2012 Show to everybody activity_165575729 181.3 Km 2482 m 06:34:58 27.54 Km\h BMC SLR 01 m.y. 2011
06/04/2012 Show to everybody activity_165226554 54.06 Km 894 m 02:11:00 24.76 Km\h BMC SLR 01 m.y. 2011
04/04/2012 Show to everybody activity_164673372 43.71 Km 500 m 01:27:58 29.81 Km\h BMC SLR 01 m.y. 2011
03/04/2012 Show to everybody activity_164375282 26.21 Km 254 m 00:57:32 27.33 Km\h BMC SLR 01 m.y. 2011
01/04/2012 Show to everybody activity_163848213 102.92 Km 943 m 03:23:01 30.42 Km\h BMC SLR 01 m.y. 2011
31/03/2012 Show to everybody activity_163286552 152.45 Km 2506 m 05:57:49 25.56 Km\h BMC SLR 01 m.y. 2011
29/03/2012 Show to everybody activity_162683965 54.94 Km 740 m 02:00:39 27.32 Km\h BMC SLR 01 m.y. 2011
28/03/2012 Show to everybody activity_162408856 52.46 Km 879 m 01:57:33 26.78 Km\h BMC SLR 01 m.y. 2011
26/03/2012 Show to everybody activity_161787094 51.38 Km 710 m 01:54:08 27.01 Km\h BMC SLR 01 m.y. 2011
25/03/2012 Show to everybody activity_161448729 110.29 Km 1559 m 03:25:55 32.14 Km\h BMC SLR 01 m.y. 2011
24/03/2012 Show to everybody activity_161448779 37.35 Km 326 m 01:29:52 24.94 Km\h BMC SLR 01 m.y. 2011
22/03/2012 Show to everybody activity_160371489 43.95 Km 625 m 01:35:23 27.65 Km\h BMC SLR 01 m.y. 2011
21/03/2012 Show to everybody activity_160095225 56.32 Km 980 m 02:05:37 26.9 Km\h BMC SLR 01 m.y. 2011
18/03/2012 Show to everybody activity_159176336 112.88 Km 1654 m 04:09:07 27.19 Km\h BMC SLR 01 m.y. 2011
17/03/2012 Show to everybody activity_158750726 114.48 Km 1507 m 04:23:57 26.02 Km\h BMC SLR 01 m.y. 2011
15/03/2012 Show to everybody siberia_via_spagna_ 33.16 Km 453 m 01:10:58 28.04 Km\h BMC SLR 01 m.y. 2011
14/03/2012 Show to everybody activity_157862287 52.92 Km 839 m 01:57:48 26.95 Km\h BMC SLR 01 m.y. 2011
12/03/2012 Show to everybody activity_157371849 47.65 Km 484 m 01:47:45 26.53 Km\h BMC SLR 01 m.y. 2011
11/03/2012 Show to everybody activity_156936440 100.79 Km 984 m 03:39:23 27.57 Km\h BMC SLR 01 m.y. 2011
10/03/2012 Show to everybody activity_156462394 133.02 Km 1906 m 05:02:34 26.38 Km\h BMC SLR 01 m.y. 2011
08/03/2012 Show to everybody activity_155968445 56.32 Km 983 m 02:05:32 26.92 Km\h BMC SLR 01 m.y. 2011
07/03/2012 Show to everybody activity_155695852 52.46 Km 823 m 01:56:39 26.99 Km\h BMC SLR 01 m.y. 2011
04/03/2012 Show to everybody activity_154975046 140.39 Km 1959 m 04:46:22 29.42 Km\h BMC SLR 01 m.y. 2011
03/03/2012 Show to everybody activity_154975077 35.31 Km 340 m 01:31:35 23.13 Km\h BMC SLR 01 m.y. 2011
01/03/2012 Show to everybody puia_riccò_valle 45.46 Km 869 m 01:42:24 26.63 Km\h BMC SLR 01 m.y. 2011
28/02/2012 Show to everybody activity_153400409 49.03 Km 880 m 01:46:43 27.57 Km\h BMC SLR 01 m.y. 2011
27/02/2012 Show to everybody scarico 42.32 Km 150 m 01:12:21 35.09 Km\h BMC SLR 01 m.y. 2011
26/02/2012 Show to everybody activity_152982289 105.19 Km 1058 m 03:24:45 30.83 Km\h BMC SLR 01 m.y. 2011
25/02/2012 Show to everybody activity_152982376 171.38 Km 1610 m 05:32:07 30.96 Km\h BMC SLR 01 m.y. 2011
24/02/2012 Show to everybody activity_152982424 78.48 Km 837 m 02:36:20 30.12 Km\h BMC SLR 01 m.y. 2011
22/02/2012 Show to everybody activity_151664099 49.2 Km 916 m 01:56:06 25.43 Km\h BMC SLR 01 m.y. 2011
18/02/2012 Show to everybody activity_150994941 100.53 Km 1333 m 04:23:55 22.85 Km\h Specialized Stumpjumper S-Works 2010
16/02/2012 Show to everybody activity_149977179 38.76 Km 601 m 01:41:34 22.9 Km\h Specialized Stumpjumper S-Works 2010
14/02/2012 Show to everybody activity_149548421 35.39 Km 551 m 01:37:06 21.87 Km\h Specialized Stumpjumper S-Works 2010
13/02/2012 Show to everybody activity_149348465 34.4 Km 594 m 01:36:46 21.33 Km\h Specialized Stumpjumper S-Works 2010
14/01/2012 Show to everybody activity_141531333 142.41 Km 1974 m 05:32:03 25.73 Km\h BMC SLR 01 m.y. 2011
12/01/2012 Show to everybody activity_141040083 47.59 Km 762 m 01:47:01 26.68 Km\h BMC SLR 01 m.y. 2011
10/01/2012 Show to everybody activity_140542867 50.43 Km 768 m 01:54:38 26.4 Km\h BMC SLR 01 m.y. 2011
09/01/2012 Show to everybody activity_140300287 40.28 Km 474 m 01:35:41 25.26 Km\h BMC SLR 01 m.y. 2011
06/01/2012 Show to everybody bergogna_castelvetro_ospitaletto 71.5 Km 903 m 02:50:08 25.21 Km\h BMC SLR 01 m.y. 2011

Show previous years trainings
This user's bikes.
BMC SLR 01 m.y. 2011 141 10927.46 Km 140062 m 392:38:04 28.01 Km/h
Specialized Stumpjumper S-Works 2010 33 1879.79 Km 31224 m 95:15:41 20.14 Km/h
Bianchi Sempre 2013 Sram Force/Apex 53 3387.17 Km 23599 m 112:23:25 30.59 Km/h
Bianchi Oltre XR Sram Red 2013 28 2885.22 Km 32629 m 99:55:00 29.28 Km/h

332 points
Kilometers
0
Vertical gain
0
Rank:53

Watch ranking »

 

Bike name

Delete this bike?

Now you follow this users and you can compare your trainings

If you stop following this users you will not be able to compare your trainings with his


bdc-forum.it | 2012-2019 Training Camp v.1.0.15